Time;durP1;ratioP1;P1;durP2;ratioP2;P2;SDS_P1;SDS_P2;PMS_P1;PMS_P2;Temp;Humidity;BMP_temperature;BMP_pressure;BME280_temperature;BME280_humidity;BME280_pressure;Samples;Min_cycle;Max_cycle;Signal;HPM_P1;HPM_P2
2022/07/01 00:01:33;;;;;;;6.57;6.07;;;;;;;;;;5140098;27;20963;-80
2022/07/01 00:04:01;;;;;;;6.15;5.55;;;;;;;;;;5141786;27;20432;-78
2022/07/01 00:06:28;;;;;;;6.30;5.70;;;;;;;;;;5142005;27;20437;-79
2022/07/01 00:08:55;;;;;;;7.00;6.05;;;;;;;;;;5141015;27;20436;-80
2022/07/01 00:11:22;;;;;;;6.50;5.90;;;;;;;;;;5139242;27;20517;-78
2022/07/01 00:13:49;;;;;;;7.50;6.80;;;;;;;;;;5128791;27;20912;-78
2022/07/01 00:16:16;;;;;;;7.85;6.35;;;;;;;;;;5139896;27;20512;-80
2022/07/01 00:18:45;;;;;;;7.05;6.35;;;;;;;;;;5139648;27;20429;-81
2022/07/01 00:21:12;;;;;;;6.70;6.10;;;;;;;;;;5147163;27;20441;-78
2022/07/01 00:23:40;;;;;;;7.00;6.30;;;;;;;;;;5143734;27;20975;-80
2022/07/01 00:26:07;;;;;;;6.80;6.20;;;;;;;;;;5140675;27;20715;-81
2022/07/01 00:28:34;;;;;;;8.02;7.32;;;;;;;;;;5142835;27;20425;-80
2022/07/01 00:31:01;;;;;;;7.90;6.40;;;;;;;;;;5147996;27;20441;-78
2022/07/01 00:33:28;;;;;;;7.47;6.67;;;;;;;;;;5159388;27;20429;-78
2022/07/01 00:35:56;;;;;;;7.28;6.60;;;;;;;;;;5152948;27;20937;-79
2022/07/01 00:38:24;;;;;;;7.10;6.40;;;;;;;;;;5150859;27;20451;-80
2022/07/01 00:40:53;;;;;;;7.57;6.87;;;;;;;;;;5148688;27;20945;-78
2022/07/01 00:43:22;;;;;;;7.20;6.20;;;;;;;;;;5145908;27;21280;-77
2022/07/01 00:45:50;;;;;;;7.68;6.97;;;;;;;;;;5143359;27;21004;-77
2022/07/01 00:48:17;;;;;;;7.15;6.20;;;;;;;;;;5150691;27;20433;-78
2022/07/01 00:50:45;;;;;;;7.28;6.20;;;;;;;;;;5148966;27;20450;-79
2022/07/01 00:53:14;;;;;;;7.18;6.47;;;;;;;;;;5141288;27;20420;-78
2022/07/01 00:55:41;;;;;;;7.70;6.83;;;;;;;;;;5150820;27;20428;-78
2022/07/01 00:58:09;;;;;;;6.78;6.07;;;;;;;;;;5149824;27;20420;-80
2022/07/01 01:00:38;;;;;;;7.32;6.63;;;;;;;;;;5147869;27;20425;-80
2022/07/01 01:03:06;;;;;;;6.85;6.07;;;;;;;;;;5143438;27;20492;-77
2022/07/01 01:05:33;;;;;;;7.28;6.40;;;;;;;;;;5149574;27;20562;-79
2022/07/01 01:08:00;;;;;;;7.80;6.70;;;;;;;;;;5142773;27;20409;-78
2022/07/01 01:10:29;;;;;;;6.88;6.22;;;;;;;;;;5145341;27;20437;-79
2022/07/01 01:12:56;;;;;;;7.90;7.10;;;;;;;;;;5144924;27;20409;-79
2022/07/01 01:15:24;;;;;;;8.32;7.53;;;;;;;;;;5147165;27;20479;-79
2022/07/01 01:17:51;;;;;;;8.57;7.40;;;;;;;;;;5137736;27;20623;-78
2022/07/01 01:20:20;;;;;;;8.85;7.88;;;;;;;;;;5144203;27;20425;-80
2022/07/01 01:22:49;;;;;;;10.45;7.60;;;;;;;;;;5151522;27;20417;-78
2022/07/01 01:25:16;;;;;;;9.07;8.10;;;;;;;;;;5150858;27;20497;-78
2022/07/01 01:27:43;;;;;;;9.10;8.20;;;;;;;;;;5159944;27;20429;-79
2022/07/01 01:30:12;;;;;;;9.88;7.63;;;;;;;;;;5142139;27;20437;-79
2022/07/01 01:32:40;;;;;;;9.65;8.65;;;;;;;;;;5149708;27;20428;-78
2022/07/01 01:35:07;;;;;;;10.97;9.20;;;;;;;;;;5146607;27;20424;-78
2022/07/01 01:37:35;;;;;;;10.48;9.23;;;;;;;;;;5146251;27;20420;-79
2022/07/01 01:40:03;;;;;;;9.95;8.90;;;;;;;;;;5143137;27;20874;-80
2022/07/01 01:42:31;;;;;;;9.70;8.68;;;;;;;;;;5149664;27;20421;-80
2022/07/01 01:44:58;;;;;;;9.35;8.45;;;;;;;;;;5149675;27;20531;-79
2022/07/01 01:47:25;;;;;;;8.75;7.93;;;;;;;;;;5144124;27;20414;-77
2022/07/01 01:49:52;;;;;;;8.50;7.70;;;;;;;;;;5149378;27;20436;-80
2022/07/01 01:52:19;;;;;;;8.30;7.40;;;;;;;;;;5143839;27;20433;-78
2022/07/01 01:54:46;;;;;;;7.78;7.03;;;;;;;;;;5150562;27;20942;-78
2022/07/01 01:57:15;;;;;;;8.10;7.20;;;;;;;;;;5142017;27;20437;-78
2022/07/01 01:59:42;;;;;;;7.30;6.60;;;;;;;;;;5150151;27;20431;-79
2022/07/01 02:02:09;;;;;;;7.50;6.20;;;;;;;;;;5141082;27;20755;-77
2022/07/01 02:04:37;;;;;;;6.90;6.20;;;;;;;;;;5144708;27;20432;-77
2022/07/01 02:07:04;;;;;;;5.93;5.32;;;;;;;;;;5140437;27;20791;-77
2022/07/01 02:09:32;;;;;;;7.20;5.93;;;;;;;;;;5150683;27;20480;-77
2022/07/01 02:11:59;;;;;;;6.28;5.68;;;;;;;;;;5146903;27;20430;-80
2022/07/01 02:14:28;;;;;;;6.30;5.70;;;;;;;;;;5143153;27;20999;-78
2022/07/01 02:16:55;;;;;;;6.10;5.40;;;;;;;;;;5139806;27;20424;-79
2022/07/01 02:19:22;;;;;;;6.15;5.22;;;;;;;;;;5149339;27;20914;-79
2022/07/01 02:21:50;;;;;;;5.68;5.18;;;;;;;;;;5146605;27;20432;-78
2022/07/01 02:24:18;;;;;;;5.83;5.23;;;;;;;;;;5130685;27;20514;-77
2022/07/01 02:26:45;;;;;;;6.93;5.80;;;;;;;;;;5146664;27;21004;-77
2022/07/01 02:29:12;;;;;;;5.47;4.88;;;;;;;;;;5132439;27;20443;-77
2022/07/01 02:31:41;;;;;;;5.70;4.70;;;;;;;;;;5137598;27;20431;-78
2022/07/01 02:34:08;;;;;;;5.57;4.60;;;;;;;;;;5148933;27;20432;-77
2022/07/01 02:36:35;;;;;;;4.50;4.10;;;;;;;;;;5147250;27;20420;-77
2022/07/01 02:39:02;;;;;;;5.28;4.57;;;;;;;;;;5149595;27;20425;-77
2022/07/01 02:41:29;;;;;;;4.17;3.63;;;;;;;;;;5148807;27;20424;-77
2022/07/01 02:43:56;;;;;;;3.97;3.58;;;;;;;;;;5150557;27;20408;-79
2022/07/01 02:46:24;;;;;;;5.07;3.65;;;;;;;;;;5148143;27;20943;-79
2022/07/01 02:48:52;;;;;;;3.80;3.40;;;;;;;;;;5138184;27;20434;-77
2022/07/01 02:51:19;;;;;;;4.72;3.25;;;;;;;;;;5148930;27;20424;-78
2022/07/01 02:53:46;;;;;;;3.30;3.00;;;;;;;;;;5150344;27;20419;-78
2022/07/01 02:56:13;;;;;;;3.60;3.30;;;;;;;;;;5140160;27;21115;-78
2022/07/01 02:58:41;;;;;;;3.50;3.20;;;;;;;;;;5134745;27;20423;-80
2022/07/01 03:01:08;;;;;;;3.80;3.05;;;;;;;;;;5139977;27;20435;-79
2022/07/01 03:03:35;;;;;;;3.40;2.70;;;;;;;;;;5149165;27;20579;-80
2022/07/01 03:06:04;;;;;;;5.00;2.87;;;;;;;;;;5137246;27;20443;-77
2022/07/01 03:08:31;;;;;;;2.92;2.72;;;;;;;;;;5141173;27;20432;-78
2022/07/01 03:10:58;;;;;;;3.03;2.70;;;;;;;;;;5143984;27;20933;-79
2022/07/01 03:13:25;;;;;;;2.60;2.40;;;;;;;;;;5140941;27;20436;-79
2022/07/01 03:15:52;;;;;;;3.42;2.50;;;;;;;;;;5141834;27;20435;-79
2022/07/01 03:18:19;;;;;;;3.60;2.50;;;;;;;;;;5142657;27;20517;-78
2022/07/01 03:20:48;;;;;;;2.60;2.40;;;;;;;;;;5138012;27;20432;-80
2022/07/01 03:23:17;;;;;;;3.20;2.42;;;;;;;;;;5144001;27;20983;-78
2022/07/01 03:25:44;;;;;;;5.70;2.60;;;;;;;;;;5137766;27;20436;-80
2022/07/01 03:28:11;;;;;;;3.10;2.20;;;;;;;;;;5141258;27;20430;-78
2022/07/01 03:30:38;;;;;;;3.17;2.88;;;;;;;;;;5138744;27;20432;-80
2022/07/01 03:33:06;;;;;;;4.03;2.70;;;;;;;;;;5146098;27;21058;-79
2022/07/01 03:35:40;;;;;;;2.80;2.60;;;;;;;;;;5135603;27;20440;-79
2022/07/01 03:38:08;;;;;;;3.85;2.83;;;;;;;;;;5139672;27;20477;-79
2022/07/01 03:40:36;;;;;;;4.05;2.78;;;;;;;;;;5146467;27;20428;-80
2022/07/01 03:43:04;;;;;;;2.80;2.28;;;;;;;;;;5149433;27;20416;-79
2022/07/01 03:45:31;;;;;;;3.22;2.60;;;;;;;;;;5150210;27;20420;-81
2022/07/01 03:47:59;;;;;;;3.75;2.60;;;;;;;;;;5154750;27;20435;-79
2022/07/01 03:50:26;;;;;;;3.97;2.50;;;;;;;;;;5144680;27;20436;-79
2022/07/01 03:55:36;;;;;;;2.50;2.30;;;;;;;;;;5151094;27;20453;-79
2022/07/01 03:58:03;;;;;;;3.78;2.67;;;;;;;;;;5150958;27;20428;-80
2022/07/01 04:00:32;;;;;;;3.80;2.60;;;;;;;;;;5147860;27;20516;-79
2022/07/01 04:02:59;;;;;;;2.47;2.28;;;;;;;;;;5146330;27;20424;-81
2022/07/01 04:05:26;;;;;;;3.25;2.53;;;;;;;;;;5147662;27;20428;-81
2022/07/01 04:07:53;;;;;;;3.22;2.40;;;;;;;;;;5143755;27;21140;-80
2022/07/01 04:10:20;;;;;;;3.00;2.70;;;;;;;;;;5140468;27;20424;-78
2022/07/01 04:12:49;;;;;;;3.58;2.40;;;;;;;;;;5139052;27;20431;-79
2022/07/01 04:15:17;;;;;;;3.17;2.33;;;;;;;;;;5141375;27;20842;-78
2022/07/01 04:17:44;;;;;;;4.10;2.50;;;;;;;;;;5143854;27;20426;-79
2022/07/01 04:20:12;;;;;;;3.78;2.30;;;;;;;;;;5145082;27;20430;-79
2022/07/01 04:22:38;;;;;;;3.20;2.50;;;;;;;;;;5141093;27;20465;-79
2022/07/01 04:25:07;;;;;;;2.20;2.00;;;;;;;;;;5145179;27;20420;-79
2022/07/01 04:27:34;;;;;;;2.40;2.20;;;;;;;;;;5138163;27;20428;-79
2022/07/01 04:30:03;;;;;;;2.10;2.00;;;;;;;;;;5136328;27;20418;-79
2022/07/01 04:32:31;;;;;;;2.60;2.05;;;;;;;;;;5141499;27;20420;-78
2022/07/01 04:34:58;;;;;;;4.40;2.10;;;;;;;;;;5139731;27;20432;-79
2022/07/01 04:37:25;;;;;;;2.10;1.90;;;;;;;;;;5141765;27;20426;-79
2022/07/01 04:39:52;;;;;;;3.60;2.05;;;;;;;;;;5142805;27;20475;-79
2022/07/01 04:42:20;;;;;;;2.53;2.00;;;;;;;;;;5149660;27;20425;-79
2022/07/01 04:44:47;;;;;;;4.40;2.25;;;;;;;;;;5145580;27;20421;-80
2022/07/01 04:47:15;;;;;;;2.65;2.28;;;;;;;;;;5149923;27;20489;-80
2022/07/01 04:49:43;;;;;;;2.70;2.20;;;;;;;;;;5153577;27;20445;-81
2022/07/01 04:52:10;;;;;;;2.50;2.30;;;;;;;;;;5154040;27;20504;-81
2022/07/01 04:54:37;;;;;;;2.88;2.40;;;;;;;;;;5155065;27;20422;-80
2022/07/01 04:57:04;;;;;;;3.22;2.10;;;;;;;;;;5154628;27;20446;-79
2022/07/01 04:59:31;;;;;;;2.97;2.20;;;;;;;;;;5153096;27;20484;-80
2022/07/01 05:01:59;;;;;;;3.35;2.28;;;;;;;;;;5153649;27;20416;-77
2022/07/01 05:04:28;;;;;;;3.58;2.30;;;;;;;;;;5157297;27;20452;-79
2022/07/01 05:06:55;;;;;;;3.07;2.13;;;;;;;;;;5168145;27;20425;-79
2022/07/01 05:09:23;;;;;;;3.78;2.30;;;;;;;;;;5172520;27;20446;-80
2022/07/01 05:11:50;;;;;;;3.63;2.22;;;;;;;;;;5168011;27;20534;-79
2022/07/01 05:14:17;;;;;;;4.38;2.72;;;;;;;;;;5165374;27;21226;-79
2022/07/01 05:16:44;;;;;;;2.92;2.55;;;;;;;;;;5164925;27;20433;-79
2022/07/01 05:21:58;;;;;;;4.65;2.72;;;;;;;;;;5158563;27;20430;-78
2022/07/01 05:24:27;;;;;;;3.33;2.30;;;;;;;;;;5157016;27;20411;-77
2022/07/01 05:26:54;;;;;;;3.40;2.20;;;;;;;;;;5149110;27;21183;-78
2022/07/01 05:29:21;;;;;;;4.55;2.20;;;;;;;;;;5139979;27;20431;-80
2022/07/01 05:31:48;;;;;;;3.97;2.10;;;;;;;;;;5148094;27;20521;-80
2022/07/01 05:34:16;;;;;;;2.70;1.85;;;;;;;;;;5143265;27;20449;-79
2022/07/01 05:36:43;;;;;;;2.95;2.03;;;;;;;;;;5143300;27;20939;-82
2022/07/01 05:39:12;;;;;;;4.25;2.10;;;;;;;;;;5148759;27;20411;-82
2022/07/01 05:41:40;;;;;;;5.00;2.90;;;;;;;;;;5149794;27;20508;-80
2022/07/01 05:44:07;;;;;;;2.90;1.85;;;;;;;;;;5151348;27;20625;-80
2022/07/01 05:46:34;;;;;;;3.70;2.35;;;;;;;;;;5143738;27;20435;-78
2022/07/01 05:49:01;;;;;;;3.45;1.98;;;;;;;;;;5142153;27;20518;-81
2022/07/01 05:51:28;;;;;;;4.15;2.10;;;;;;;;;;5142858;27;20433;-81
2022/07/01 05:53:57;;;;;;;4.80;2.63;;;;;;;;;;5143861;27;20429;-81
2022/07/01 05:56:26;;;;;;;2.70;2.20;;;;;;;;;;5146258;27;20508;-79
2022/07/01 05:58:54;;;;;;;4.75;2.40;;;;;;;;;;5143466;27;20440;-66
2022/07/01 06:01:21;;;;;;;5.18;2.35;;;;;;;;;;5137625;27;20422;-79
2022/07/01 06:03:48;;;;;;;4.57;2.67;;;;;;;;;;5150384;27;20447;-69
2022/07/01 06:06:18;;;;;;;6.90;2.30;;;;;;;;;;5138845;27;20416;-74
2022/07/01 06:08:45;;;;;;;2.40;2.20;;;;;;;;;;5139387;27;20431;-74
2022/07/01 06:11:12;;;;;;;4.78;2.50;;;;;;;;;;5139788;27;20437;-75
2022/07/01 06:13:40;;;;;;;4.90;2.90;;;;;;;;;;5140344;27;20431;-75
2022/07/01 06:16:07;;;;;;;4.18;2.80;;;;;;;;;;5134368;27;20428;-74
2022/07/01 06:18:35;;;;;;;2.72;2.25;;;;;;;;;;5137199;27;20504;-74
2022/07/01 06:21:02;;;;;;;5.18;2.70;;;;;;;;;;5131079;27;20808;-73
2022/07/01 06:23:29;;;;;;;4.60;2.90;;;;;;;;;;5142275;27;20436;-74
2022/07/01 06:25:56;;;;;;;4.78;2.85;;;;;;;;;;5136779;27;20905;-74
2022/07/01 06:28:25;;;;;;;3.25;2.38;;;;;;;;;;5137303;27;20424;-74
2022/07/01 06:30:55;;;;;;;4.80;2.30;;;;;;;;;;5137305;27;20432;-74
2022/07/01 06:33:22;;;;;;;4.30;2.08;;;;;;;;;;5137273;27;20439;-73
2022/07/01 06:35:49;;;;;;;3.30;2.08;;;;;;;;;;5140772;27;20409;-73
2022/07/01 06:38:16;;;;;;;4.85;2.20;;;;;;;;;;5142954;27;20412;-76
2022/07/01 06:41:26;;;;;;;3.88;2.05;;;;;;;;;;5138709;27;21042;-73
2022/07/01 06:43:30;;;;;;;4.20;2.35;;;;;;;;;;5135245;27;20423;-74
2022/07/01 06:45:59;;;;;;;4.35;2.00;;;;;;;;;;5137680;27;20462;-73
2022/07/01 06:48:26;;;;;;;3.80;2.25;;;;;;;;;;5139814;27;20791;-73
2022/07/01 06:50:53;;;;;;;3.03;2.30;;;;;;;;;;5137798;27;20424;-73
2022/07/01 06:53:20;;;;;;;4.40;2.53;;;;;;;;;;5139649;27;20438;-71
2022/07/01 06:55:47;;;;;;;4.93;2.50;;;;;;;;;;5138532;27;20511;-71
2022/07/01 06:58:14;;;;;;;3.88;2.70;;;;;;;;;;5143113;27;20425;-72
2022/07/01 07:00:42;;;;;;;5.63;2.85;;;;;;;;;;5133169;27;20435;-73
2022/07/01 07:03:10;;;;;;;3.97;3.00;;;;;;;;;;5138477;27;20433;-71
2022/07/01 07:05:38;;;;;;;4.40;3.00;;;;;;;;;;5130579;27;21178;-72
2022/07/01 07:08:05;;;;;;;4.60;2.90;;;;;;;;;;5140227;27;20428;-72
2022/07/01 07:10:32;;;;;;;3.75;2.50;;;;;;;;;;5136838;27;20823;-72
2022/07/01 07:13:00;;;;;;;4.03;2.75;;;;;;;;;;5141873;27;20422;-72
2022/07/01 07:15:27;;;;;;;4.40;2.70;;;;;;;;;;5135818;27;20436;-73
2022/07/01 07:17:57;;;;;;;3.50;2.80;;;;;;;;;;5138230;27;20432;-73
2022/07/01 07:20:26;;;;;;;3.40;2.50;;;;;;;;;;5137587;27;20420;-73
2022/07/01 07:22:53;;;;;;;3.67;2.65;;;;;;;;;;5136049;27;20461;-74
2022/07/01 07:25:20;;;;;;;4.05;2.55;;;;;;;;;;5137782;27;20425;-73
2022/07/01 07:27:47;;;;;;;2.87;2.20;;;;;;;;;;5142555;27;20436;-74
2022/07/01 07:30:15;;;;;;;5.07;2.70;;;;;;;;;;5143141;27;20420;-74
2022/07/01 07:32:42;;;;;;;3.40;2.60;;;;;;;;;;5146864;27;20544;-73
2022/07/01 07:35:09;;;;;;;3.40;2.08;;;;;;;;;;5139815;27;20791;-73
2022/07/01 07:37:38;;;;;;;3.90;2.50;;;;;;;;;;5143637;27;20433;-74
2022/07/01 07:40:07;;;;;;;4.47;2.20;;;;;;;;;;5145527;27;20459;-74
2022/07/01 07:42:35;;;;;;;4.40;2.97;;;;;;;;;;5143543;27;20424;-72
2022/07/01 07:45:02;;;;;;;3.57;2.40;;;;;;;;;;5139092;27;20810;-74
2022/07/01 07:47:29;;;;;;;2.53;2.30;;;;;;;;;;5139541;27;20455;-73
2022/07/01 07:49:57;;;;;;;3.10;2.40;;;;;;;;;;5142032;27;20430;-73
2022/07/01 07:52:24;;;;;;;4.30;2.25;;;;;;;;;;5141795;27;20421;-74
2022/07/01 07:54:52;;;;;;;3.93;2.70;;;;;;;;;;5146720;27;20817;-73
2022/07/01 07:57:19;;;;;;;3.90;2.30;;;;;;;;;;5142329;27;20428;-73
2022/07/01 07:59:47;;;;;;;4.07;2.40;;;;;;;;;;5138731;27;20456;-74
2022/07/01 08:02:14;;;;;;;3.97;2.40;;;;;;;;;;5134896;27;20492;-73
2022/07/01 08:04:41;;;;;;;6.47;2.50;;;;;;;;;;5144769;27;20427;-74
2022/07/01 08:07:10;;;;;;;2.67;2.20;;;;;;;;;;5145320;27;22377;-74
2022/07/01 08:09:37;;;;;;;3.20;2.40;;;;;;;;;;5141892;27;20425;-74
2022/07/01 08:12:06;;;;;;;6.15;2.70;;;;;;;;;;5133551;27;20418;-73
2022/07/01 08:14:33;;;;;;;3.80;2.72;;;;;;;;;;5138273;27;20432;-71
2022/07/01 08:17:00;;;;;;;5.50;2.80;;;;;;;;;;5139959;27;20432;-73
2022/07/01 08:19:27;;;;;;;3.65;2.30;;;;;;;;;;5136136;27;20429;-72
2022/07/01 08:21:54;;;;;;;3.70;2.80;;;;;;;;;;5138992;27;21055;-74
2022/07/01 08:24:21;;;;;;;2.85;1.95;;;;;;;;;;5137678;27;20428;-73
2022/07/01 08:26:49;;;;;;;3.65;2.45;;;;;;;;;;5133442;27;20938;-73
2022/07/01 08:29:17;;;;;;;3.60;2.50;;;;;;;;;;5139704;27;20871;-73
2022/07/01 08:31:44;;;;;;;2.90;2.60;;;;;;;;;;5136817;27;20420;-72
2022/07/01 08:34:11;;;;;;;3.13;2.50;;;;;;;;;;5132967;27;20427;-74
2022/07/01 08:36:39;;;;;;;5.35;2.42;;;;;;;;;;5138404;27;20434;-72
2022/07/01 08:39:06;;;;;;;3.45;2.15;;;;;;;;;;5140498;27;20423;-73
2022/07/01 08:41:33;;;;;;;4.18;2.30;;;;;;;;;;5139506;27;20432;-72
2022/07/01 08:44:00;;;;;;;5.28;3.00;;;;;;;;;;5135507;27;20437;-71
2022/07/01 08:46:29;;;;;;;4.50;2.60;;;;;;;;;;5137717;27;20911;-71
2022/07/01 08:48:56;;;;;;;3.78;2.60;;;;;;;;;;5140843;27;20403;-71
2022/07/01 08:51:23;;;;;;;3.92;3.50;;;;;;;;;;5135116;27;21107;-72
2022/07/01 08:53:50;;;;;;;3.28;2.75;;;;;;;;;;5141816;27;20421;-73
2022/07/01 08:59:02;;;;;;;2.40;2.20;;;;;;;;;;5143251;27;20590;-71
2022/07/01 09:01:31;;;;;;;2.90;2.40;;;;;;;;;;5145156;27;20495;-71
2022/07/01 09:03:58;;;;;;;4.13;2.50;;;;;;;;;;5139143;27;20424;-72
2022/07/01 09:06:27;;;;;;;3.30;3.00;;;;;;;;;;5137962;27;20434;-72
2022/07/01 09:08:55;;;;;;;3.55;2.42;;;;;;;;;;5141073;27;20424;-69
2022/07/01 09:11:22;;;;;;;2.60;2.40;;;;;;;;;;5138096;27;20420;-68
2022/07/01 09:14:06;;;;;;;2.63;2.42;;;;;;;;;;5140774;27;20438;-66
2022/07/01 09:16:40;;;;;;;3.15;2.50;;;;;;;;;;5136358;27;20437;-67
2022/07/01 09:19:07;;;;;;;2.53;2.30;;;;;;;;;;5138606;27;20891;-68
2022/07/01 09:21:34;;;;;;;3.73;2.90;;;;;;;;;;5138825;27;20426;-73
2022/07/01 09:24:04;;;;;;;4.57;2.90;;;;;;;;;;5139614;27;20439;-72
2022/07/01 09:26:31;;;;;;;5.30;2.85;;;;;;;;;;5141507;27;20417;-72
2022/07/01 09:29:00;;;;;;;2.72;2.53;;;;;;;;;;5136935;27;20423;-72
2022/07/01 09:31:31;;;;;;;3.10;2.78;;;;;;;;;;5145833;27;20443;-72
2022/07/01 09:34:07;;;;;;;3.23;2.90;;;;;;;;;;5137293;27;20410;-71
2022/07/01 09:36:34;;;;;;;2.75;2.30;;;;;;;;;;5147029;27;20405;-63
2022/07/01 09:39:05;;;;;;;3.65;2.20;;;;;;;;;;5137572;27;20453;-64
2022/07/01 09:41:36;;;;;;;3.25;2.30;;;;;;;;;;5144012;27;20419;-65
2022/07/01 09:44:05;;;;;;;3.65;2.60;;;;;;;;;;5135575;27;20765;-64
2022/07/01 09:46:33;;;;;;;2.40;2.20;;;;;;;;;;5133753;27;20658;-65
2022/07/01 09:49:00;;;;;;;2.80;2.13;;;;;;;;;;5136606;27;20504;-65
2022/07/01 09:51:29;;;;;;;3.65;2.10;;;;;;;;;;5146145;27;20425;-65
2022/07/01 09:53:56;;;;;;;3.22;2.35;;;;;;;;;;5138076;27;20425;-65
2022/07/01 09:56:24;;;;;;;3.15;2.20;;;;;;;;;;5138971;27;20436;-65
2022/07/01 09:58:51;;;;;;;2.80;2.20;;;;;;;;;;5136240;27;20433;-66
2022/07/01 10:01:18;;;;;;;4.25;2.40;;;;;;;;;;5133902;27;20440;-65
2022/07/01 10:03:46;;;;;;;2.42;2.10;;;;;;;;;;5137489;27;20453;-64
2022/07/01 10:06:22;;;;;;;3.33;2.00;;;;;;;;;;5135024;27;20415;-65
2022/07/01 10:08:59;;;;;;;2.80;2.10;;;;;;;;;;5140186;27;20433;-65
2022/07/01 10:11:44;;;;;;;2.50;2.10;;;;;;;;;;5143314;27;20866;-66
2022/07/01 10:14:13;;;;;;;2.90;2.50;;;;;;;;;;5145699;27;20413;-67
2022/07/01 10:16:40;;;;;;;3.37;2.20;;;;;;;;;;5137624;27;21259;-65
2022/07/01 10:19:08;;;;;;;4.28;2.33;;;;;;;;;;5142740;27;20442;-67
2022/07/01 10:21:35;;;;;;;3.20;2.40;;;;;;;;;;5135725;27;20857;-65
2022/07/01 10:24:14;;;;;;;3.45;2.08;;;;;;;;;;5141047;27;20426;-66
2022/07/01 10:26:41;;;;;;;1.90;1.65;;;;;;;;;;5138468;22;20923;-65
2022/07/01 10:29:23;;;;;;;3.00;1.80;;;;;;;;;;5097143;28;20521;-65
2022/07/01 10:31:50;;;;;;;2.28;1.70;;;;;;;;;;5091201;28;20436;-65
2022/07/01 10:34:18;;;;;;;4.80;2.90;;;;;;;;;;5098983;28;20920;-65
2022/07/01 10:36:45;;;;;;;5.00;2.30;;;;;;;;;;5079859;28;20458;-65
2022/07/01 10:39:16;;;;;;;2.90;1.85;;;;;;;;;;5067753;28;20426;-64
2022/07/01 10:41:56;;;;;;;2.25;1.65;;;;;;;;;;5064934;28;20430;-65
2022/07/01 10:44:24;;;;;;;2.33;1.60;;;;;;;;;;5076606;28;20439;-65
2022/07/01 10:46:56;;;;;;;2.38;1.48;;;;;;;;;;5065023;28;20502;-65
2022/07/01 10:49:39;;;;;;;2.97;1.50;;;;;;;;;;5065462;28;20442;-65
2022/07/01 10:52:07;;;;;;;3.83;1.53;;;;;;;;;;5066673;28;20576;-64
2022/07/01 10:54:49;;;;;;;2.13;1.60;;;;;;;;;;5067425;28;20894;-65
2022/07/01 10:57:22;;;;;;;3.17;1.83;;;;;;;;;;5071785;28;20436;-64
2022/07/01 10:59:50;;;;;;;4.03;1.80;;;;;;;;;;5064723;28;20871;-65
2022/07/01 11:02:18;;;;;;;2.20;1.57;;;;;;;;;;5071570;28;20892;-65
2022/07/01 11:04:45;;;;;;;3.17;1.67;;;;;;;;;;5070509;28;20415;-66
2022/07/01 11:07:12;;;;;;;2.50;1.80;;;;;;;;;;5070201;28;20423;-64
2022/07/01 11:09:39;;;;;;;3.10;1.67;;;;;;;;;;5065317;28;20529;-65
2022/07/01 11:12:09;;;;;;;3.42;1.80;;;;;;;;;;5065176;28;20419;-65
2022/07/01 11:14:36;;;;;;;3.17;1.70;;;;;;;;;;5068869;28;20434;-65
2022/07/01 11:17:04;;;;;;;2.30;1.50;;;;;;;;;;5065321;28;20856;-65
2022/07/01 11:19:31;;;;;;;2.53;1.70;;;;;;;;;;5071886;28;20437;-65
2022/07/01 11:21:59;;;;;;;3.30;1.50;;;;;;;;;;5073377;28;20482;-64
2022/07/01 11:24:26;;;;;;;3.00;1.80;;;;;;;;;;5064454;28;20917;-65
2022/07/01 11:26:56;;;;;;;2.20;1.60;;;;;;;;;;5061376;28;20449;-64
2022/07/01 11:29:27;;;;;;;1.88;1.60;;;;;;;;;;5067819;28;20509;-64
2022/07/01 11:31:54;;;;;;;2.80;1.80;;;;;;;;;;5069037;28;20740;-65
2022/07/01 11:34:22;;;;;;;3.17;1.40;;;;;;;;;;5066310;28;20446;-65
2022/07/01 11:39:35;;;;;;;3.67;1.20;;;;;;;;;;5067444;28;20753;-64
2022/07/01 11:42:06;;;;;;;2.90;1.40;;;;;;;;;;5065979;28;20468;-68
2022/07/01 11:44:36;;;;;;;2.63;1.40;;;;;;;;;;5069593;28;20486;-64
2022/07/01 11:47:03;;;;;;;1.30;1.20;;;;;;;;;;5064711;28;20493;-64
2022/07/01 11:49:30;;;;;;;3.10;1.83;;;;;;;;;;5063986;28;20423;-64
2022/07/01 11:51:59;;;;;;;3.50;2.10;;;;;;;;;;5066922;28;20882;-64
2022/07/01 11:54:26;;;;;;;2.40;1.30;;;;;;;;;;5069627;28;20508;-64
2022/07/01 11:56:53;;;;;;;3.85;2.30;;;;;;;;;;5070275;28;20503;-64
2022/07/01 11:59:21;;;;;;;3.27;1.83;;;;;;;;;;5067469;28;20485;-64
2022/07/01 12:01:54;;;;;;;2.58;1.60;;;;;;;;;;5071212;28;20518;-64
2022/07/01 12:04:21;;;;;;;2.13;1.40;;;;;;;;;;5060567;28;20435;-64
2022/07/01 12:06:49;;;;;;;2.30;1.40;;;;;;;;;;5069528;28;20545;-64
2022/07/01 12:09:16;;;;;;;2.40;1.30;;;;;;;;;;5067743;28;20438;-63
2022/07/01 12:11:46;;;;;;;1.90;1.33;;;;;;;;;;5066839;28;20856;-63
2022/07/01 12:14:20;;;;;;;2.03;0.90;;;;;;;;;;5066672;28;20523;-65
2022/07/01 12:16:47;;;;;;;2.20;1.10;;;;;;;;;;5063339;28;20978;-65
2022/07/01 12:19:15;;;;;;;1.93;1.00;;;;;;;;;;5065398;28;20423;-64
2022/07/01 12:21:49;;;;;;;2.53;1.10;;;;;;;;;;5064777;28;20420;-65
2022/07/01 12:24:18;;;;;;;2.30;1.10;;;;;;;;;;5066070;28;20928;-65
2022/07/01 12:26:49;;;;;;;2.00;0.90;;;;;;;;;;5073039;28;20505;-64
2022/07/01 12:29:17;;;;;;;1.58;1.00;;;;;;;;;;5072410;28;20438;-64
2022/07/01 12:31:45;;;;;;;1.58;1.10;;;;;;;;;;5068288;28;20419;-64
2022/07/01 12:34:12;;;;;;;2.20;1.20;;;;;;;;;;5071788;28;20440;-65
2022/07/01 12:36:48;;;;;;;3.00;1.20;;;;;;;;;;5069876;28;20422;-64
2022/07/01 12:39:15;;;;;;;2.00;1.02;;;;;;;;;;5069579;28;20428;-64
2022/07/01 12:41:50;;;;;;;1.90;1.10;;;;;;;;;;5067646;28;20526;-64
2022/07/01 12:44:24;;;;;;;2.45;1.00;;;;;;;;;;5068932;28;20427;-65
2022/07/01 12:46:51;;;;;;;1.77;0.88;;;;;;;;;;5069146;28;20442;-64
2022/07/01 12:49:22;;;;;;;1.70;0.70;;;;;;;;;;5069291;28;20407;-65
2022/07/01 12:51:51;;;;;;;0.82;0.70;;;;;;;;;;5066482;28;20462;-64
2022/07/01 12:54:31;;;;;;;2.03;1.00;;;;;;;;;;5072472;28;20416;-65
2022/07/01 12:56:59;;;;;;;1.30;0.75;;;;;;;;;;5068376;28;20418;-65
2022/07/01 12:59:26;;;;;;;2.35;0.75;;;;;;;;;;5072890;28;20796;-64
2022/07/01 13:01:54;;;;;;;2.10;0.90;;;;;;;;;;5075168;28;20431;-64
2022/07/01 13:04:27;;;;;;;1.90;0.90;;;;;;;;;;5065919;28;20512;-65
2022/07/01 13:06:56;;;;;;;3.00;0.70;;;;;;;;;;5070304;28;20577;-64
2022/07/01 13:09:23;;;;;;;1.33;0.63;;;;;;;;;;5073158;28;20491;-65
2022/07/01 13:11:50;;;;;;;1.92;1.00;;;;;;;;;;5068149;28;20432;-64
2022/07/01 13:14:17;;;;;;;1.55;0.60;;;;;;;;;;5068798;28;20877;-63
2022/07/01 13:16:44;;;;;;;1.90;0.70;;;;;;;;;;5070028;28;20437;-63
2022/07/01 13:19:11;;;;;;;1.60;0.60;;;;;;;;;;5064167;28;21335;-63
2022/07/01 13:21:38;;;;;;;1.63;0.70;;;;;;;;;;5065112;28;20433;-63
2022/07/01 13:24:07;;;;;;;1.40;0.60;;;;;;;;;;5069134;28;20739;-63
2022/07/01 13:26:34;;;;;;;2.22;1.00;;;;;;;;;;5073132;28;20438;-62
2022/07/01 13:29:01;;;;;;;1.35;0.50;;;;;;;;;;5065834;28;21566;-62
2022/07/01 13:31:28;;;;;;;1.50;0.70;;;;;;;;;;5068821;28;20428;-65
2022/07/01 13:33:56;;;;;;;1.20;0.80;;;;;;;;;;5065044;28;20525;-63
2022/07/01 13:36:23;;;;;;;1.67;0.60;;;;;;;;;;5067636;28;20445;-64
2022/07/01 13:38:50;;;;;;;2.60;0.70;;;;;;;;;;5067900;28;20457;-62
2022/07/01 13:41:21;;;;;;;0.70;0.50;;;;;;;;;;5067365;28;20679;-63
2022/07/01 13:43:48;;;;;;;1.10;0.45;;;;;;;;;;5068980;28;20435;-64
2022/07/01 13:46:15;;;;;;;1.90;0.50;;;;;;;;;;5073505;28;20419;-63
2022/07/01 13:48:42;;;;;;;1.17;0.60;;;;;;;;;;5067060;28;20482;-64
2022/07/01 13:51:09;;;;;;;1.90;0.70;;;;;;;;;;5066320;28;20418;-64
2022/07/01 13:53:37;;;;;;;1.25;0.50;;;;;;;;;;5068612;28;20503;-63
2022/07/01 13:56:04;;;;;;;1.30;0.50;;;;;;;;;;5067047;28;20491;-64
2022/07/01 13:58:32;;;;;;;1.70;0.50;;;;;;;;;;5072735;28;21021;-65
2022/07/01 14:01:00;;;;;;;1.25;0.60;;;;;;;;;;5072836;28;20439;-64
2022/07/01 14:03:27;;;;;;;0.82;0.50;;;;;;;;;;5077239;28;20968;-63
2022/07/01 14:05:54;;;;;;;1.45;0.50;;;;;;;;;;5073255;28;20415;-64
2022/07/01 14:08:21;;;;;;;0.80;0.40;;;;;;;;;;5070041;28;20463;-64
2022/07/01 14:10:48;;;;;;;1.10;0.40;;;;;;;;;;5069241;28;20441;-64
2022/07/01 14:13:16;;;;;;;1.75;0.50;;;;;;;;;;5073264;28;20429;-65
2022/07/01 14:15:45;;;;;;;2.00;0.60;;;;;;;;;;5068682;28;20447;-64
2022/07/01 14:18:12;;;;;;;1.55;0.70;;;;;;;;;;5064799;28;20539;-64
2022/07/01 14:20:39;;;;;;;1.10;0.57;;;;;;;;;;5074446;28;20455;-66
2022/07/01 14:23:06;;;;;;;1.00;0.47;;;;;;;;;;5065146;28;20858;-65
2022/07/01 14:25:33;;;;;;;1.63;0.70;;;;;;;;;;5059041;28;20453;-63
2022/07/01 14:28:01;;;;;;;2.05;0.70;;;;;;;;;;5069428;28;20522;-64
2022/07/01 14:30:28;;;;;;;2.17;0.70;;;;;;;;;;5068529;28;20536;-64
2022/07/01 14:32:56;;;;;;;3.50;0.90;;;;;;;;;;5064582;28;20427;-63
2022/07/01 14:35:24;;;;;;;2.63;0.90;;;;;;;;;;5072700;28;20434;-72
2022/07/01 14:37:51;;;;;;;2.15;0.70;;;;;;;;;;5073442;28;20430;-72
2022/07/01 14:40:19;;;;;;;2.28;0.80;;;;;;;;;;5073545;28;20967;-72
2022/07/01 14:42:46;;;;;;;1.25;0.60;;;;;;;;;;5077809;28;20496;-72
2022/07/01 14:45:14;;;;;;;1.23;0.60;;;;;;;;;;5077766;28;20436;-72
2022/07/01 14:47:42;;;;;;;1.90;0.60;;;;;;;;;;5077390;28;20402;-73
2022/07/01 14:50:11;;;;;;;2.57;0.80;;;;;;;;;;5074371;28;20422;-75
2022/07/01 14:52:39;;;;;;;2.35;0.63;;;;;;;;;;5072282;28;20414;-73
2022/07/01 14:55:07;;;;;;;1.90;0.50;;;;;;;;;;5068867;28;20515;-74
2022/07/01 14:57:35;;;;;;;1.40;0.80;;;;;;;;;;5067282;28;20453;-73
2022/07/01 15:00:02;;;;;;;1.27;0.60;;;;;;;;;;5070515;28;20489;-71